createdAt,value
2019-05-19T00:01:07.626Z,11.43
2019-05-19T00:03:36.207Z,10.73
2019-05-19T00:06:04.849Z,9.13
2019-05-19T00:08:33.407Z,8.80
2019-05-19T00:11:01.988Z,8.60
2019-05-19T00:13:30.541Z,8.67
2019-05-19T00:15:59.221Z,9.17
2019-05-19T00:18:27.803Z,8.57
2019-05-19T00:20:56.353Z,10.70
2019-05-19T00:23:24.859Z,9.57
2019-05-19T00:25:53.505Z,10.23
2019-05-19T00:28:22.098Z,10.83
2019-05-19T00:30:50.724Z,10.73
2019-05-19T00:33:19.295Z,10.23
2019-05-19T00:35:47.933Z,10.37
2019-05-19T00:38:16.512Z,11.63
2019-05-19T00:40:45.210Z,11.27
2019-05-19T00:43:13.858Z,11.80
2019-05-19T00:45:42.550Z,11.53
2019-05-19T00:48:11.199Z,11.40
2019-05-19T00:50:39.897Z,12.07
2019-05-19T00:53:08.557Z,10.90
2019-05-19T00:55:37.195Z,10.23
2019-05-19T00:58:06.549Z,9.30
2019-05-19T01:00:35.262Z,9.03
2019-05-19T01:03:03.929Z,8.50
2019-05-19T01:05:32.493Z,9.40
2019-05-19T01:08:01.181Z,9.20
2019-05-19T01:10:29.829Z,10.47
2019-05-19T01:12:58.479Z,10.17
2019-05-19T01:15:27.180Z,11.13
2019-05-19T01:17:55.807Z,11.47
2019-05-19T01:20:24.390Z,11.87
2019-05-19T01:22:53.011Z,12.77
2019-05-19T01:25:21.704Z,12.87
2019-05-19T01:27:50.350Z,13.43
2019-05-19T01:30:19.404Z,13.37
2019-05-19T01:32:48.021Z,14.00
2019-05-19T01:35:17.871Z,13.73
2019-05-19T01:37:46.562Z,14.17
2019-05-19T01:40:16.124Z,13.33
2019-05-19T01:42:44.810Z,13.30
2019-05-19T01:45:14.621Z,13.13
2019-05-19T01:47:43.181Z,11.90
2019-05-19T01:50:19.161Z,12.73
2019-05-19T01:52:42.334Z,14.40
2019-05-19T01:55:11.787Z,13.57
2019-05-19T01:57:40.433Z,13.63
2019-05-19T02:00:10.356Z,14.03
2019-05-19T02:02:38.931Z,13.60
2019-05-19T02:05:10.938Z,14.87
2019-05-19T02:07:39.572Z,14.80
2019-05-19T02:10:11.727Z,14.37
2019-05-19T02:12:40.350Z,14.43
2019-05-19T02:15:10.299Z,14.97
2019-05-19T02:17:38.953Z,14.97
2019-05-19T02:20:08.402Z,14.20
2019-05-19T02:22:37.054Z,13.17
2019-05-19T02:25:08.851Z,12.50
2019-05-19T02:27:37.428Z,12.07
2019-05-19T02:30:07.709Z,13.03
2019-05-19T02:32:36.331Z,13.13
2019-05-19T02:35:07.148Z,12.27
2019-05-19T02:37:35.802Z,12.13
2019-05-19T02:40:06.321Z,12.53
2019-05-19T02:42:37.940Z,11.87
2019-05-19T02:45:08.185Z,12.93
2019-05-19T02:47:38.634Z,13.20
2019-05-19T02:50:07.893Z,13.60
2019-05-19T02:52:38.184Z,13.37
2019-05-19T02:55:07.437Z,13.10
2019-05-19T02:57:36.887Z,13.27
2019-05-19T03:00:09.214Z,14.90
2019-05-19T03:02:37.791Z,14.67
2019-05-19T03:05:06.685Z,14.03
2019-05-19T03:07:35.339Z,14.37
2019-05-19T03:10:05.004Z,15.50
2019-05-19T03:12:33.554Z,15.10
2019-05-19T03:15:02.148Z,16.93
2019-05-19T03:17:30.721Z,16.40
2019-05-19T03:19:59.351Z,17.40
2019-05-19T03:22:27.904Z,14.70
2019-05-19T03:24:56.549Z,15.40
2019-05-19T03:27:25.178Z,14.27
2019-05-19T03:29:58.378Z,14.23
2019-05-19T03:32:28.614Z,14.37
2019-05-19T03:34:57.089Z,13.17
2019-05-19T03:37:28.432Z,13.30
2019-05-19T03:39:57.013Z,12.33
2019-05-19T03:42:25.611Z,11.23
2019-05-19T03:44:54.204Z,12.13
2019-05-19T03:47:22.749Z,11.70
2019-05-19T03:49:51.256Z,12.50
2019-05-19T03:52:19.940Z,11.33
2019-05-19T03:54:48.518Z,11.10
2019-05-19T03:57:17.170Z,10.30
2019-05-19T03:59:45.741Z,9.57
2019-05-19T04:02:14.261Z,9.97
2019-05-19T04:04:42.879Z,9.70
2019-05-19T04:07:11.511Z,9.83
2019-05-19T04:09:40.061Z,10.23
2019-05-19T04:12:08.745Z,9.63
2019-05-19T04:14:37.243Z,10.80
2019-05-19T04:17:05.855Z,9.90
2019-05-19T04:19:34.400Z,9.20
2019-05-19T04:22:02.907Z,8.73
2019-05-19T04:24:35.677Z,8.83
2019-05-19T04:27:04.369Z,9.63
2019-05-19T04:29:32.932Z,8.43
2019-05-19T04:32:01.479Z,9.73
2019-05-19T04:34:29.985Z,9.00
2019-05-19T04:36:58.695Z,9.00
2019-05-19T04:39:27.323Z,8.40
2019-05-19T04:41:55.842Z,9.37
2019-05-19T04:44:28.223Z,10.03
2019-05-19T04:46:56.759Z,8.87
2019-05-19T04:49:25.366Z,8.90
2019-05-19T04:52:05.951Z,8.90
2019-05-19T04:54:24.813Z,8.03
2019-05-19T04:56:53.594Z,7.47
2019-05-19T04:59:22.164Z,7.10
2019-05-19T05:01:50.750Z,7.40
2019-05-19T05:04:19.391Z,7.67
2019-05-19T05:06:47.937Z,7.60
2019-05-19T05:09:16.520Z,6.93
2019-05-19T05:11:45.161Z,7.30
2019-05-19T05:14:13.866Z,6.07
2019-05-19T05:16:42.444Z,7.20
2019-05-19T05:19:11.093Z,6.30
2019-05-19T05:21:39.745Z,9.37
2019-05-19T05:24:10.679Z,10.93
2019-05-19T05:26:39.298Z,7.07
2019-05-19T05:29:07.981Z,6.10
2019-05-19T05:31:36.483Z,5.97
2019-05-19T05:34:05.190Z,6.20
2019-05-19T05:36:33.832Z,6.53
2019-05-19T05:39:02.403Z,5.23
2019-05-19T05:41:31.048Z,5.57
2019-05-19T05:43:59.692Z,5.93
2019-05-19T05:46:28.376Z,5.03
2019-05-19T05:48:56.876Z,5.93
2019-05-19T05:51:25.466Z,5.73
2019-05-19T05:53:54.099Z,5.57
2019-05-19T05:56:22.684Z,5.20
2019-05-19T05:58:51.414Z,5.50
2019-05-19T06:01:20.089Z,5.17
2019-05-19T06:03:48.665Z,5.17
2019-05-19T06:06:17.350Z,5.90
2019-05-19T06:08:45.852Z,4.97
2019-05-19T06:11:14.437Z,5.87
2019-05-19T06:13:43.039Z,5.60
2019-05-19T06:16:11.912Z,5.60
2019-05-19T06:18:40.434Z,6.00
2019-05-19T06:21:09.177Z,5.57
2019-05-19T06:23:37.749Z,5.17
2019-05-19T06:26:06.458Z,5.93
2019-05-19T06:28:35.103Z,5.80
2019-05-19T06:31:03.754Z,5.40
2019-05-19T06:33:32.333Z,6.30
2019-05-19T06:36:01.592Z,7.60
2019-05-19T06:38:30.150Z,6.53
2019-05-19T06:40:58.830Z,6.60
2019-05-19T06:43:27.589Z,7.00
2019-05-19T06:45:56.110Z,6.50
2019-05-19T06:48:24.744Z,6.08
2019-05-19T06:50:53.442Z,5.67
2019-05-19T06:53:22.073Z,5.85
2019-05-19T06:55:50.739Z,5.28
2019-05-19T06:58:19.406Z,5.63
2019-05-19T07:00:48.045Z,5.20
2019-05-19T07:03:16.696Z,5.58
2019-05-19T07:05:45.388Z,5.20
2019-05-19T07:08:14.012Z,4.70
2019-05-19T07:10:42.645Z,5.47
2019-05-19T07:13:11.295Z,5.37
2019-05-19T07:15:39.946Z,4.97
2019-05-19T07:18:08.561Z,4.75
2019-05-19T07:20:37.048Z,4.92
2019-05-19T07:23:05.785Z,4.47
2019-05-19T07:25:34.398Z,4.90
2019-05-19T07:28:02.980Z,3.58
2019-05-19T07:30:31.658Z,4.03
2019-05-19T07:33:00.299Z,4.70
2019-05-19T07:35:28.935Z,3.90
2019-05-19T07:37:57.621Z,4.75
2019-05-19T07:40:26.277Z,4.92
2019-05-19T07:42:54.948Z,4.37
2019-05-19T07:45:23.587Z,4.12
2019-05-19T07:47:52.231Z,4.37
2019-05-19T07:50:20.834Z,3.80
2019-05-19T07:52:49.404Z,4.00
2019-05-19T07:55:17.894Z,4.15
2019-05-19T07:57:46.405Z,4.50
2019-05-19T08:00:15.147Z,4.03
2019-05-19T08:02:43.673Z,4.12
2019-05-19T08:05:15.645Z,4.70
2019-05-19T08:07:44.157Z,4.97
2019-05-19T08:10:12.958Z,4.05
2019-05-19T08:12:41.644Z,5.08
2019-05-19T08:15:10.272Z,3.77
2019-05-19T08:17:38.864Z,4.17
2019-05-19T08:20:10.889Z,4.17
2019-05-19T08:22:39.536Z,4.22
2019-05-19T08:25:08.592Z,4.85
2019-05-19T08:27:37.176Z,4.72
2019-05-19T08:30:07.813Z,5.05
2019-05-19T08:32:36.382Z,5.62
2019-05-19T08:35:06.335Z,4.95
2019-05-19T08:37:34.902Z,5.60
2019-05-19T08:40:03.691Z,5.12
2019-05-19T08:42:32.332Z,5.08
2019-05-19T08:45:00.970Z,5.17
2019-05-19T08:47:29.587Z,4.55
2019-05-19T08:49:58.242Z,5.33
2019-05-19T08:52:26.803Z,5.28
2019-05-19T08:54:56.146Z,5.22
2019-05-19T08:57:24.740Z,5.03
2019-05-19T08:59:56.601Z,4.60
2019-05-19T09:02:25.279Z,5.33
2019-05-19T09:04:53.918Z,5.20
2019-05-19T09:07:22.529Z,4.72
2019-05-19T09:09:51.040Z,5.17
2019-05-19T09:12:19.649Z,4.22
2019-05-19T09:14:48.368Z,4.65
2019-05-19T09:17:16.982Z,4.55
2019-05-19T09:19:45.512Z,4.35
2019-05-19T09:22:14.122Z,4.12
2019-05-19T09:24:42.699Z,4.92
2019-05-19T09:27:11.386Z,5.00
2019-05-19T09:29:39.963Z,4.85
2019-05-19T09:32:08.610Z,3.83
2019-05-19T09:34:37.249Z,4.08
2019-05-19T09:37:05.934Z,4.70
2019-05-19T09:39:34.614Z,4.92
2019-05-19T09:42:03.248Z,4.75
2019-05-19T09:44:31.902Z,3.95
2019-05-19T09:47:00.573Z,4.10
2019-05-19T09:49:32.132Z,3.70
2019-05-19T09:52:01.637Z,3.92
2019-05-19T09:54:44.223Z,4.85
2019-05-19T09:57:01.098Z,4.20
2019-05-19T09:59:29.871Z,4.30
2019-05-19T10:01:59.121Z,3.92
2019-05-19T10:04:27.737Z,4.12
2019-05-19T10:06:56.492Z,4.10
2019-05-19T10:09:52.154Z,4.40
2019-05-19T10:12:20.801Z,3.87
2019-05-19T10:14:49.453Z,3.65
2019-05-19T10:17:18.440Z,3.75
2019-05-19T10:19:47.019Z,3.80
2019-05-19T10:22:15.664Z,3.58
2019-05-19T10:24:59.300Z,4.10
2019-05-19T10:27:14.722Z,3.62
2019-05-19T10:29:46.404Z,3.60
2019-05-19T10:32:15.088Z,4.00
2019-05-19T10:34:43.667Z,4.03
2019-05-19T10:37:13.029Z,4.22
2019-05-19T10:39:41.685Z,4.83
2019-05-19T10:42:10.324Z,4.87
2019-05-19T10:44:38.913Z,5.37
2019-05-19T10:47:07.394Z,5.47
2019-05-19T10:49:36.075Z,5.15
2019-05-19T10:52:04.818Z,4.87
2019-05-19T10:54:33.394Z,4.75
2019-05-19T10:57:01.943Z,4.80
2019-05-19T10:59:30.586Z,5.58
2019-05-19T11:01:59.168Z,5.00
2019-05-19T11:04:30.691Z,5.05
2019-05-19T11:06:59.324Z,4.90
2019-05-19T11:09:33.482Z,4.97
2019-05-19T11:12:02.050Z,4.20
2019-05-19T11:14:30.627Z,4.12
2019-05-19T11:16:59.291Z,4.28
2019-05-19T11:19:27.831Z,3.87
2019-05-19T11:21:56.472Z,4.78
2019-05-19T11:24:25.086Z,4.05
2019-05-19T11:26:53.651Z,3.92
2019-05-19T11:29:22.337Z,3.67
2019-05-19T11:31:50.975Z,2.90
2019-05-19T11:34:19.682Z,3.70
2019-05-19T11:36:48.231Z,3.58
2019-05-19T11:39:16.787Z,3.33
2019-05-19T11:41:45.422Z,3.95
2019-05-19T11:44:13.980Z,3.08
2019-05-19T11:46:42.585Z,2.90
2019-05-19T11:49:11.152Z,3.65
2019-05-19T11:51:39.662Z,3.62
2019-05-19T11:54:08.309Z,3.30
2019-05-19T11:56:36.806Z,3.35
2019-05-19T11:59:05.460Z,3.02
2019-05-19T12:01:34.039Z,2.95
2019-05-19T12:04:02.613Z,2.72
2019-05-19T12:06:39.267Z,2.75
2019-05-19T12:09:01.442Z,3.33
2019-05-19T12:11:30.017Z,2.60
2019-05-19T12:13:58.776Z,2.58
2019-05-19T12:16:27.321Z,3.08
2019-05-19T12:18:57.572Z,3.05
2019-05-19T12:21:26.353Z,2.65
2019-05-19T12:23:54.931Z,2.37
2019-05-19T12:26:23.901Z,2.90
2019-05-19T12:28:52.509Z,5.60
2019-05-19T12:31:21.175Z,2.00
2019-05-19T12:33:52.254Z,2.12
2019-05-19T12:36:20.066Z,2.37
2019-05-19T12:38:48.575Z,2.85
2019-05-19T12:41:17.086Z,2.02
2019-05-19T12:43:45.729Z,2.20
2019-05-19T12:46:16.678Z,2.33
2019-05-19T12:48:44.625Z,1.82
2019-05-19T12:51:13.255Z,2.00
2019-05-19T12:53:41.946Z,2.37
2019-05-19T12:56:10.639Z,2.05
2019-05-19T12:58:39.291Z,2.02
2019-05-19T13:01:10.999Z,2.25
2019-05-19T13:03:39.563Z,1.90
2019-05-19T13:06:08.254Z,2.35
2019-05-19T13:08:36.804Z,2.05
2019-05-19T13:11:05.456Z,1.90
2019-05-19T13:13:34.081Z,2.72
2019-05-19T13:16:02.654Z,1.85
2019-05-19T13:18:31.163Z,2.22
2019-05-19T13:21:02.674Z,1.98
2019-05-19T13:23:31.184Z,1.90
2019-05-19T13:25:59.702Z,2.67
2019-05-19T13:28:28.262Z,2.15
2019-05-19T13:30:56.909Z,2.10
2019-05-19T13:33:25.563Z,1.92
2019-05-19T13:35:54.068Z,1.75
2019-05-19T13:38:22.637Z,1.80
2019-05-19T13:40:51.252Z,2.52
2019-05-19T13:43:19.893Z,1.10
2019-05-19T13:45:48.520Z,1.80
2019-05-19T13:48:19.851Z,1.52
2019-05-19T13:50:48.418Z,1.75
2019-05-19T13:53:17.033Z,1.60
2019-05-19T13:55:45.678Z,1.40
2019-05-19T13:58:14.194Z,1.87
2019-05-19T14:00:42.842Z,1.30
2019-05-19T14:03:11.491Z,1.37
2019-05-19T14:05:40.051Z,1.27
2019-05-19T14:08:08.588Z,1.35
2019-05-19T14:10:37.152Z,1.82
2019-05-19T14:13:08.810Z,4.70
2019-05-19T14:15:37.387Z,1.65
2019-05-19T14:18:05.956Z,1.52
2019-05-19T14:20:34.532Z,2.05
2019-05-19T14:23:03.110Z,1.65
2019-05-19T14:25:31.743Z,1.60
2019-05-19T14:28:00.293Z,1.47
2019-05-19T14:30:28.851Z,1.65
2019-05-19T14:32:57.793Z,1.10
2019-05-19T14:35:26.550Z,1.20
2019-05-19T14:37:55.190Z,1.50
2019-05-19T14:40:23.864Z,1.55
2019-05-19T14:42:57.227Z,1.42
2019-05-19T14:45:25.874Z,1.52
2019-05-19T14:47:54.520Z,1.20
2019-05-19T14:50:23.188Z,1.80
2019-05-19T14:52:51.748Z,1.12
2019-05-19T14:55:20.435Z,1.67
2019-05-19T14:57:49.119Z,1.55
2019-05-19T15:00:19.594Z,1.37
2019-05-19T15:02:51.082Z,1.37
2019-05-19T15:05:19.829Z,1.00
2019-05-19T15:07:54.747Z,3.62
2019-05-19T15:10:23.455Z,1.12
2019-05-19T15:12:52.111Z,1.35
2019-05-19T15:15:20.781Z,1.40
2019-05-19T15:17:49.552Z,1.25
2019-05-19T15:20:18.318Z,1.60
2019-05-19T15:22:46.940Z,2.15
2019-05-19T15:25:15.626Z,1.22
2019-05-19T15:27:57.830Z,1.10
2019-05-19T15:30:19.005Z,1.00
2019-05-19T15:32:47.715Z,1.12
2019-05-19T15:35:16.348Z,1.15
2019-05-19T15:37:45.010Z,1.22
2019-05-19T15:40:16.836Z,1.17
2019-05-19T15:42:45.348Z,1.40
2019-05-19T15:45:14.108Z,1.15
2019-05-19T15:47:42.647Z,1.15
2019-05-19T15:50:12.857Z,1.42
2019-05-19T15:52:41.433Z,1.60
2019-05-19T15:55:10.090Z,1.15
2019-05-19T15:57:42.987Z,1.20
2019-05-19T16:00:11.932Z,1.07
2019-05-19T16:02:56.621Z,0.82
2019-05-19T16:05:13.181Z,0.65
2019-05-19T16:07:41.784Z,1.30
2019-05-19T16:10:12.193Z,1.37
2019-05-19T16:12:40.857Z,2.90
2019-05-19T16:15:13.170Z,1.12
2019-05-19T16:17:41.763Z,1.37
2019-05-19T16:20:10.504Z,1.37
2019-05-19T16:22:39.183Z,0.95
2019-05-19T16:25:08.476Z,1.10
2019-05-19T16:27:37.103Z,1.40
2019-05-19T16:30:09.412Z,1.10
2019-05-19T16:32:38.169Z,1.02
2019-05-19T16:35:07.621Z,1.35
2019-05-19T16:37:36.249Z,1.05
2019-05-19T16:40:06.148Z,2.65
2019-05-19T16:42:34.752Z,1.37
2019-05-19T16:45:03.597Z,1.40
2019-05-19T16:47:32.264Z,1.50
2019-05-19T16:50:00.754Z,1.22
2019-05-19T16:52:29.452Z,1.15
2019-05-19T16:55:15.812Z,1.10
2019-05-19T16:57:44.443Z,1.65
2019-05-19T17:00:14.710Z,2.00
2019-05-19T17:02:43.347Z,2.40
2019-05-19T17:05:12.458Z,1.87
2019-05-19T17:07:40.951Z,2.02
2019-05-19T17:10:10.542Z,1.50
2019-05-19T17:12:39.173Z,2.22
2019-05-19T17:15:09.344Z,2.10
2019-05-19T17:17:37.927Z,2.30
2019-05-19T17:20:08.114Z,2.15
2019-05-19T17:22:36.776Z,2.27
2019-05-19T17:25:06.524Z,1.90
2019-05-19T17:27:35.173Z,1.72
2019-05-19T17:30:08.570Z,2.00
2019-05-19T17:32:38.385Z,3.17
2019-05-19T17:35:08.265Z,3.10
2019-05-19T17:37:39.328Z,2.02
2019-05-19T17:40:11.806Z,1.70
2019-05-19T17:42:40.463Z,1.57
2019-05-19T17:45:09.747Z,1.67
2019-05-19T17:47:38.392Z,1.82
2019-05-19T17:50:07.441Z,1.90
2019-05-19T17:52:36.080Z,1.87
2019-05-19T17:55:06.217Z,2.00
2019-05-19T17:57:35.594Z,2.58
2019-05-19T18:00:05.833Z,2.70
2019-05-19T18:02:34.467Z,2.05
2019-05-19T18:05:03.111Z,2.50
2019-05-19T18:07:31.632Z,2.95
2019-05-19T18:10:00.285Z,3.10
2019-05-19T18:12:28.850Z,1.77
2019-05-19T18:14:57.426Z,1.77
2019-05-19T18:17:25.993Z,2.00
2019-05-19T18:19:54.600Z,1.37
2019-05-19T18:22:23.173Z,1.45
2019-05-19T18:24:54.725Z,1.37
2019-05-19T18:27:23.392Z,1.20
2019-05-19T18:29:51.974Z,1.52
2019-05-19T18:32:20.579Z,1.40
2019-05-19T18:34:49.087Z,1.47
2019-05-19T18:37:17.737Z,1.30
2019-05-19T18:39:46.234Z,1.20
2019-05-19T18:42:14.802Z,1.70
2019-05-19T18:44:43.411Z,1.33
2019-05-19T18:47:15.059Z,2.17
2019-05-19T18:49:43.600Z,2.03
2019-05-19T18:52:12.166Z,1.90
2019-05-19T18:54:40.865Z,1.87
2019-05-19T18:57:09.496Z,1.47
2019-05-19T18:59:46.812Z,1.70
2019-05-19T19:02:08.550Z,1.83
2019-05-19T19:04:37.129Z,1.90
2019-05-19T19:07:05.771Z,1.67
2019-05-19T19:09:34.334Z,1.47
2019-05-19T19:12:02.915Z,2.10
2019-05-19T19:14:31.500Z,2.03
2019-05-19T19:17:00.143Z,2.20
2019-05-19T19:19:28.681Z,2.10
2019-05-19T19:21:57.166Z,1.97
2019-05-19T19:24:25.824Z,1.67
2019-05-19T19:26:54.396Z,1.80
2019-05-19T19:29:22.974Z,1.80
2019-05-19T19:31:51.545Z,1.47
2019-05-19T19:34:20.216Z,1.40
2019-05-19T19:36:48.853Z,1.40
2019-05-19T19:39:17.460Z,1.27
2019-05-19T19:41:46.030Z,1.40
2019-05-19T19:44:14.672Z,1.80
2019-05-19T19:46:43.318Z,2.27
2019-05-19T19:49:11.976Z,1.47
2019-05-19T19:51:40.564Z,1.57
2019-05-19T19:54:09.133Z,1.20
2019-05-19T19:56:40.756Z,1.70
2019-05-19T19:59:09.255Z,1.60
2019-05-19T20:01:37.929Z,1.97
2019-05-19T20:04:06.515Z,1.57
2019-05-19T20:06:35.149Z,1.70
2019-05-19T20:09:06.976Z,1.67
2019-05-19T20:11:35.607Z,2.00
2019-05-19T20:14:04.246Z,1.83
2019-05-19T20:16:32.780Z,1.63
2019-05-19T20:19:01.272Z,1.63
2019-05-19T20:21:32.818Z,1.73
2019-05-19T20:24:01.460Z,1.70
2019-05-19T20:26:30.036Z,1.80
2019-05-19T20:28:58.600Z,2.00
2019-05-19T20:31:27.268Z,1.30
2019-05-19T20:33:55.837Z,1.30
2019-05-19T20:36:24.532Z,1.60
2019-05-19T20:38:58.502Z,1.63
2019-05-19T20:41:27.123Z,1.47
2019-05-19T20:43:55.699Z,1.73
2019-05-19T20:46:24.235Z,1.23
2019-05-19T20:48:52.722Z,1.87
2019-05-19T20:51:21.345Z,1.50
2019-05-19T20:53:53.030Z,1.67
2019-05-19T20:56:20.087Z,2.20
2019-05-19T20:58:48.652Z,1.63
2019-05-19T21:01:17.260Z,1.63
2019-05-19T21:03:45.822Z,1.40
2019-05-19T21:06:14.390Z,1.43
2019-05-19T21:08:42.963Z,1.23
2019-05-19T21:11:11.639Z,1.27
2019-05-19T21:13:40.269Z,1.30
2019-05-19T21:16:08.850Z,0.93
2019-05-19T21:18:37.446Z,1.30
2019-05-19T21:21:06.020Z,1.13
2019-05-19T21:23:34.522Z,1.10
2019-05-19T21:26:03.199Z,1.33
2019-05-19T21:28:31.767Z,1.47
2019-05-19T21:31:05.688Z,1.53
2019-05-19T21:33:30.527Z,2.13
2019-05-19T21:35:59.125Z,1.30
2019-05-19T21:38:27.664Z,1.10
2019-05-19T21:40:56.320Z,2.00
2019-05-19T21:43:24.960Z,1.43
2019-05-19T21:45:53.522Z,1.57
2019-05-19T21:48:23.743Z,1.40
2019-05-19T21:50:52.317Z,1.63
2019-05-19T21:53:20.994Z,2.27
2019-05-19T21:55:49.630Z,1.73
2019-05-19T21:58:18.218Z,2.03
2019-05-19T22:00:47.383Z,2.30
2019-05-19T22:03:15.969Z,2.67
2019-05-19T22:05:52.823Z,2.20
2019-05-19T22:08:18.665Z,2.87
2019-05-19T22:10:47.346Z,3.33
2019-05-19T22:13:16.012Z,3.80
2019-05-19T22:15:44.654Z,2.63
2019-05-19T22:18:13.218Z,2.73
2019-05-19T22:20:41.875Z,2.90
2019-05-19T22:23:10.458Z,2.73
2019-05-19T22:25:39.105Z,3.00
2019-05-19T22:28:07.722Z,2.40
2019-05-19T22:30:36.282Z,2.53
2019-05-19T22:33:04.923Z,2.47
2019-05-19T22:35:33.614Z,2.47
2019-05-19T22:38:02.249Z,2.60
2019-05-19T22:40:30.909Z,2.63
2019-05-19T22:42:59.492Z,2.20
2019-05-19T22:45:28.761Z,2.23
2019-05-19T22:47:57.455Z,2.80
2019-05-19T22:50:26.127Z,2.30
2019-05-19T22:52:54.741Z,3.00
2019-05-19T22:55:23.385Z,3.10
2019-05-19T22:57:51.994Z,3.00
2019-05-19T23:00:21.740Z,3.23
2019-05-19T23:02:50.426Z,3.20
2019-05-19T23:05:19.263Z,3.23
2019-05-19T23:07:47.901Z,3.20
2019-05-19T23:10:16.614Z,3.33
2019-05-19T23:12:45.208Z,3.60
2019-05-19T23:15:14.765Z,3.60
2019-05-19T23:17:43.401Z,2.63
2019-05-19T23:20:12.556Z,2.80
2019-05-19T23:22:41.200Z,3.10
2019-05-19T23:25:09.835Z,3.20
2019-05-19T23:27:38.516Z,2.80
2019-05-19T23:30:09.011Z,3.60
2019-05-19T23:32:37.688Z,3.67
2019-05-19T23:35:07.198Z,4.20
2019-05-19T23:37:35.771Z,3.80
2019-05-19T23:40:06.571Z,4.10
2019-05-19T23:42:35.250Z,4.40
2019-05-19T23:45:05.013Z,5.17
2019-05-19T23:47:33.690Z,5.50
2019-05-19T23:50:02.415Z,5.17
2019-05-19T23:52:31.001Z,4.77
2019-05-19T23:54:59.612Z,4.30
2019-05-19T23:57:31.369Z,5.87
2019-05-19T23:59:59.977Z,4.57
